Météo

Actualisé à 8h00, Lille

icon

T : 6 °C / H : 76 %
Pression : 1023 Hpa
Vent de nord-ouest : 22 Km/h

Nuages épars à 900 pieds
Nuages fragmentés à 1400 pieds

2024/04/21 07:00 LFQQ 210700Z AUTO 32012KT CAVOK 06/02 Q1023 TEMPO 34018G28KT 2500 SHRA SCT009 BKN014TCU

Mots clés

Internet web infographiste flyers illustrateur graphiste webmaster PAO assistance informatique logo image invitation affiche création réalisation conception site vitrine voeux carte visite publication publicité impression plaquette charte graphique identité visuelle maintenance freelance


CSS Valide ! Valid HTML 5.0
callicom.gif flo.jpg
logo-5.jpg logo.jpg
logo_Flodp2.jpg logo_les-dauphines-de-fretin1_couleur-Nb.jpg
sofetec.jpg